createdAt,value
2019-03-19T00:01:49.151Z,101626.63
2019-03-19T00:04:20.222Z,101627.06
2019-03-19T00:06:51.265Z,101623.13
2019-03-19T00:09:22.477Z,101628.38
2019-03-19T00:11:53.630Z,101622.68
2019-03-19T00:14:24.702Z,101627.92
2019-03-19T00:16:55.837Z,101618.07
2019-03-19T00:19:26.983Z,101620.63
2019-03-19T00:21:58.192Z,101622.06
2019-03-19T00:24:29.306Z,101620.77
2019-03-19T00:27:00.491Z,101623.71
2019-03-19T00:29:31.539Z,101619.84
2019-03-19T00:32:02.609Z,101617.88
2019-03-19T00:34:34.698Z,101619.00
2019-03-19T00:37:05.765Z,101612.84
2019-03-19T00:39:36.765Z,101611.41
2019-03-19T00:42:07.898Z,101608.88
2019-03-19T00:44:38.931Z,101611.77
2019-03-19T00:47:10.050Z,101619.33
2019-03-19T00:49:41.135Z,101619.98
2019-03-19T00:52:12.159Z,101623.31
2019-03-19T00:54:43.246Z,101615.06
2019-03-19T00:57:14.428Z,101619.98
2019-03-19T00:59:45.432Z,101625.80
2019-03-19T01:02:16.593Z,101627.66
2019-03-19T01:04:47.610Z,101628.61
2019-03-19T01:07:18.610Z,101636.59
2019-03-19T01:09:49.752Z,101637.25
2019-03-19T01:12:21.439Z,101644.71
2019-03-19T01:14:52.469Z,101642.84
2019-03-19T01:17:23.667Z,101646.02
2019-03-19T01:19:54.777Z,101650.98
2019-03-19T01:22:25.874Z,101651.94
2019-03-19T01:24:56.963Z,101649.48
2019-03-19T01:27:28.153Z,101657.53
2019-03-19T01:29:59.373Z,101658.39
2019-03-19T01:32:30.362Z,101660.22
2019-03-19T01:35:01.407Z,101660.87
2019-03-19T01:37:32.452Z,101660.93
2019-03-19T01:40:05.071Z,101661.81
2019-03-19T01:42:36.074Z,101656.45
2019-03-19T01:45:11.963Z,101656.45
2019-03-19T01:47:42.999Z,101658.69
2019-03-19T01:50:15.047Z,101661.29
2019-03-19T01:52:46.150Z,101659.00
2019-03-19T01:55:17.254Z,101667.40
2019-03-19T01:57:48.243Z,101670.48
2019-03-19T02:00:20.360Z,101665.27
2019-03-19T02:02:51.373Z,101671.83
2019-03-19T02:05:23.565Z,101669.34
2019-03-19T02:07:54.554Z,101672.86
2019-03-19T02:10:25.558Z,101673.31
2019-03-19T02:12:56.757Z,101667.70
2019-03-19T02:15:27.785Z,101661.64
2019-03-19T02:17:58.832Z,101659.85
2019-03-19T02:20:29.908Z,101669.23
2019-03-19T02:23:00.937Z,101667.95
2019-03-19T02:25:32.052Z,101662.53
2019-03-19T02:28:03.459Z,101662.05
2019-03-19T02:30:34.496Z,101654.55
2019-03-19T02:33:05.540Z,101655.44
2019-03-19T02:35:36.549Z,101659.66
2019-03-19T02:38:07.608Z,101660.70
2019-03-19T02:40:38.661Z,101656.77
2019-03-19T02:43:09.827Z,101655.58
2019-03-19T02:45:40.823Z,101654.30
2019-03-19T02:48:11.860Z,101653.20
2019-03-19T02:50:42.930Z,101662.04
2019-03-19T02:53:14.587Z,101661.73
2019-03-19T02:55:45.577Z,101664.72
2019-03-19T02:58:16.641Z,101669.20
2019-03-19T03:00:47.745Z,101662.34
2019-03-19T03:03:18.964Z,101668.84
2019-03-19T03:05:50.072Z,101663.08
2019-03-19T03:08:21.105Z,101666.55
2019-03-19T03:10:52.250Z,101668.59
2019-03-19T03:13:23.397Z,101665.38
2019-03-19T03:15:54.415Z,101664.52
2019-03-19T03:18:25.417Z,101669.17
2019-03-19T03:20:56.515Z,101678.70
2019-03-19T03:23:27.485Z,101684.69
2019-03-19T03:25:58.561Z,101682.25
2019-03-19T03:28:29.630Z,101685.02
2019-03-19T03:31:00.630Z,101688.63
2019-03-19T03:33:31.664Z,101690.27
2019-03-19T03:36:02.803Z,101689.51
2019-03-19T03:38:33.780Z,101690.99
2019-03-19T03:41:04.834Z,101691.09
2019-03-19T03:43:35.829Z,101690.44
2019-03-19T03:46:06.888Z,101691.63
2019-03-19T03:48:38.021Z,101699.72
2019-03-19T03:51:09.022Z,101699.66
2019-03-19T03:53:40.164Z,101703.91
2019-03-19T03:56:11.180Z,101701.80
2019-03-19T03:58:42.232Z,101697.38
2019-03-19T04:01:14.290Z,101695.30
2019-03-19T04:03:45.290Z,101697.61
2019-03-19T04:06:16.278Z,101708.02
2019-03-19T04:08:47.335Z,101712.20
2019-03-19T04:11:18.320Z,101716.15
2019-03-19T04:13:49.378Z,101722.77
2019-03-19T04:16:20.461Z,101714.27
2019-03-19T04:18:51.590Z,101721.59
2019-03-19T04:21:22.546Z,101725.77
2019-03-19T04:23:53.521Z,101724.38
2019-03-19T04:26:24.608Z,101726.83
2019-03-19T04:28:55.607Z,101727.84
2019-03-19T04:31:26.711Z,101725.64
2019-03-19T04:33:58.769Z,101730.12
2019-03-19T04:36:29.761Z,101725.41
2019-03-19T04:39:00.842Z,101726.56
2019-03-19T04:41:33.536Z,101732.33
2019-03-19T04:44:04.635Z,101735.41
2019-03-19T04:46:35.814Z,101743.66
2019-03-19T04:49:07.025Z,101745.05
2019-03-19T04:51:38.068Z,101750.28
2019-03-19T04:54:09.147Z,101754.85
2019-03-19T04:56:40.130Z,101753.60
2019-03-19T04:59:11.182Z,101756.93
2019-03-19T05:01:42.273Z,101758.01
2019-03-19T05:04:13.257Z,101753.85
2019-03-19T05:06:44.261Z,101757.75
2019-03-19T05:09:15.222Z,101757.45
2019-03-19T05:11:46.288Z,101763.80
2019-03-19T05:14:17.258Z,101762.06
2019-03-19T05:16:48.235Z,101763.89
2019-03-19T05:19:19.743Z,101764.33
2019-03-19T05:21:50.882Z,101767.45
2019-03-19T05:24:21.868Z,101777.11
2019-03-19T05:26:52.879Z,101775.77
2019-03-19T05:29:24.024Z,101775.05
2019-03-19T05:31:55.018Z,101780.23
2019-03-19T05:34:35.655Z,101781.25
2019-03-19T05:37:06.884Z,101780.70
2019-03-19T05:39:37.876Z,101785.55
2019-03-19T05:42:08.940Z,101785.28
2019-03-19T05:44:40.024Z,101785.05
2019-03-19T05:47:11.097Z,101782.06
2019-03-19T05:49:42.085Z,101786.45
2019-03-19T05:52:13.148Z,101780.98
2019-03-19T05:54:44.211Z,101782.87
2019-03-19T05:57:15.322Z,101789.42
2019-03-19T05:59:46.348Z,101788.52
2019-03-19T06:02:17.487Z,101791.09
2019-03-19T06:04:48.624Z,101794.45
2019-03-19T06:07:19.647Z,101794.80
2019-03-19T06:09:50.715Z,101795.53
2019-03-19T06:12:21.723Z,101795.01
2019-03-19T06:14:52.861Z,101796.77
2019-03-19T06:17:23.883Z,101797.88
2019-03-19T06:19:54.891Z,101799.16
2019-03-19T06:22:25.914Z,101795.22
2019-03-19T06:24:56.977Z,101799.12
2019-03-19T06:27:28.218Z,101800.38
2019-03-19T06:29:59.485Z,101796.59
2019-03-19T06:32:30.616Z,101800.74
2019-03-19T06:35:01.877Z,101801.78
2019-03-19T06:37:32.861Z,101790.44
2019-03-19T06:40:06.518Z,101805.73
2019-03-19T06:42:37.603Z,101805.73
2019-03-19T06:45:11.437Z,101809.59
2019-03-19T06:47:42.787Z,101800.13
2019-03-19T06:50:18.986Z,101800.50
2019-03-19T06:52:50.128Z,101798.83
2019-03-19T06:55:21.391Z,101800.48
2019-03-19T06:57:52.472Z,101791.09
2019-03-19T07:00:24.575Z,101801.42
2019-03-19T07:02:55.554Z,101801.42
2019-03-19T07:05:26.761Z,101814.27
2019-03-19T07:07:59.544Z,101802.78
2019-03-19T07:10:30.628Z,101817.16
2019-03-19T07:13:01.876Z,101816.27
2019-03-19T07:15:32.982Z,101810.25
2019-03-19T07:18:04.005Z,101803.95
2019-03-19T07:20:35.033Z,101809.58
2019-03-19T07:23:06.095Z,101805.00
2019-03-19T07:25:37.454Z,101806.81
2019-03-19T07:28:08.557Z,101806.87
2019-03-19T07:30:40.963Z,101806.87
2019-03-19T07:33:12.624Z,101799.14
2019-03-19T07:35:47.018Z,101802.01
2019-03-19T07:38:18.070Z,101810.48
2019-03-19T07:40:49.133Z,101801.53
2019-03-19T07:43:20.135Z,101808.38
2019-03-19T07:45:51.113Z,101814.44
2019-03-19T07:48:22.213Z,101810.97
2019-03-19T07:50:53.392Z,101806.75
2019-03-19T07:53:24.375Z,101807.22
2019-03-19T07:55:55.564Z,101805.44
2019-03-19T07:58:35.840Z,101805.44
2019-03-19T08:00:59.583Z,101802.28
2019-03-19T08:03:30.588Z,101798.63
2019-03-19T08:06:01.576Z,101790.34
2019-03-19T08:08:32.617Z,101794.31
2019-03-19T08:11:03.835Z,101795.29
2019-03-19T08:13:34.824Z,101794.59
2019-03-19T08:16:05.924Z,101794.34
2019-03-19T08:18:36.988Z,101791.79
2019-03-19T08:21:08.052Z,101794.50
2019-03-19T08:23:39.156Z,101795.75
2019-03-19T08:26:10.160Z,101793.87
2019-03-19T08:28:41.238Z,101787.14
2019-03-19T08:31:12.293Z,101788.55
2019-03-19T08:33:43.603Z,101787.33
2019-03-19T08:36:14.747Z,101793.03
2019-03-19T08:38:45.785Z,101790.27
2019-03-19T08:41:16.861Z,101788.27
2019-03-19T08:43:47.819Z,101789.05
2019-03-19T08:46:18.933Z,101783.98
2019-03-19T08:48:50.016Z,101788.45
2019-03-19T08:51:21.280Z,101787.51
2019-03-19T08:53:52.311Z,101786.31
2019-03-19T08:56:23.372Z,101779.76
2019-03-19T08:58:54.446Z,101779.73
2019-03-19T09:01:25.570Z,101773.58
2019-03-19T09:03:56.585Z,101783.83
2019-03-19T09:06:27.776Z,101788.28
2019-03-19T09:08:59.131Z,101787.68
2019-03-19T09:11:31.231Z,101779.41
2019-03-19T09:14:02.297Z,101782.63
2019-03-19T09:16:33.269Z,101784.33
2019-03-19T09:19:04.940Z,101787.58
2019-03-19T09:21:35.971Z,101787.44
2019-03-19T09:24:07.054Z,101786.84
2019-03-19T09:26:38.045Z,101783.51
2019-03-19T09:29:16.882Z,101782.16
2019-03-19T09:31:41.820Z,101780.66
2019-03-19T09:34:12.969Z,101775.87
2019-03-19T09:36:43.981Z,101772.77
2019-03-19T09:39:15.050Z,101771.27
2019-03-19T09:41:46.204Z,101771.65
2019-03-19T09:44:17.191Z,101772.77
2019-03-19T09:46:48.380Z,101769.73
2019-03-19T09:49:21.143Z,101762.34
2019-03-19T09:51:52.354Z,101756.56
2019-03-19T09:54:23.393Z,101760.13
2019-03-19T09:56:54.856Z,101755.93
2019-03-19T09:59:27.314Z,101760.48
2019-03-19T10:01:58.620Z,101751.40
2019-03-19T10:04:29.606Z,101745.20
2019-03-19T10:07:06.024Z,101746.78
2019-03-19T10:09:33.553Z,101748.59
2019-03-19T10:12:04.523Z,101737.38
2019-03-19T10:14:35.582Z,101744.94
2019-03-19T10:17:07.345Z,101737.19
2019-03-19T10:19:38.511Z,101736.91
2019-03-19T10:22:09.573Z,101724.47
2019-03-19T10:24:40.622Z,101729.26
2019-03-19T10:27:11.698Z,101721.07
2019-03-19T10:29:42.891Z,101711.78
2019-03-19T10:32:14.063Z,101711.13
2019-03-19T10:34:45.188Z,101713.22
2019-03-19T10:37:16.234Z,101699.06
2019-03-19T10:39:47.253Z,101702.81
2019-03-19T10:42:18.221Z,101703.92
2019-03-19T10:44:49.275Z,101702.05
2019-03-19T10:47:20.591Z,101703.92
2019-03-19T10:49:51.670Z,101695.91
2019-03-19T10:52:22.920Z,101698.31
2019-03-19T10:54:53.919Z,101696.08
2019-03-19T10:57:25.435Z,101692.52
2019-03-19T10:59:59.750Z,101693.45
2019-03-19T11:02:30.940Z,101685.94
2019-03-19T11:05:02.490Z,101683.94
2019-03-19T11:07:33.462Z,101681.48
2019-03-19T11:10:07.352Z,101680.24
2019-03-19T11:12:38.508Z,101678.52
2019-03-19T11:15:17.504Z,101673.01
2019-03-19T11:17:48.611Z,101665.69
2019-03-19T11:20:20.179Z,101662.61
2019-03-19T11:22:51.351Z,101660.46
2019-03-19T11:25:26.858Z,101661.66
2019-03-19T11:27:57.967Z,101663.43
2019-03-19T11:30:30.065Z,101658.77
2019-03-19T11:33:01.235Z,101659.03
2019-03-19T11:35:32.552Z,101663.02
2019-03-19T11:38:04.313Z,101653.49
2019-03-19T11:40:35.229Z,101664.37
2019-03-19T11:43:06.211Z,101653.91
2019-03-19T11:45:37.225Z,101648.88
2019-03-19T11:48:08.219Z,101649.19
2019-03-19T11:50:39.204Z,101648.67
2019-03-19T11:53:10.246Z,101642.17
2019-03-19T11:55:41.202Z,101630.30
2019-03-19T11:58:12.202Z,101637.64
2019-03-19T12:00:47.911Z,101638.01
2019-03-19T12:03:19.075Z,101632.69
2019-03-19T12:05:50.157Z,101634.38
2019-03-19T12:08:21.220Z,101629.11
2019-03-19T12:10:52.242Z,101628.23
2019-03-19T12:13:23.436Z,101620.49
2019-03-19T12:15:54.508Z,101627.94
2019-03-19T12:18:25.602Z,101624.61
2019-03-19T12:20:56.649Z,101629.47
2019-03-19T12:23:27.799Z,101627.96
2019-03-19T12:25:58.974Z,101626.83
2019-03-19T12:28:39.291Z,101621.11
2019-03-19T12:31:02.763Z,101623.89
2019-03-19T12:33:40.760Z,101624.16
2019-03-19T12:36:06.664Z,101620.89
2019-03-19T12:38:37.884Z,101620.88
2019-03-19T12:41:08.843Z,101618.52
2019-03-19T12:43:39.747Z,101618.80
2019-03-19T12:46:10.639Z,101618.59
2019-03-19T12:48:41.602Z,101618.78
2019-03-19T12:51:12.599Z,101620.73
2019-03-19T12:53:43.679Z,101621.83
2019-03-19T12:56:14.782Z,101619.23
2019-03-19T12:58:45.855Z,101614.51
2019-03-19T13:01:16.964Z,101615.29
2019-03-19T13:03:48.166Z,101614.72
2019-03-19T13:06:19.134Z,101615.09
2019-03-19T13:08:50.127Z,101616.66
2019-03-19T13:11:21.032Z,101612.85
2019-03-19T13:13:52.232Z,101606.20
2019-03-19T13:16:23.314Z,101607.84
2019-03-19T13:18:54.372Z,101606.05
2019-03-19T13:21:25.227Z,101608.77
2019-03-19T13:23:56.390Z,101604.96
2019-03-19T13:26:27.503Z,101605.39
2019-03-19T13:28:58.463Z,101606.20
2019-03-19T13:31:29.339Z,101606.39
2019-03-19T13:34:00.535Z,101606.55
2019-03-19T13:36:31.559Z,101601.39
2019-03-19T13:39:02.795Z,101601.25
2019-03-19T13:41:34.721Z,101602.55
2019-03-19T13:44:05.917Z,101598.02
2019-03-19T13:46:36.931Z,101601.38
2019-03-19T13:49:08.440Z,101597.53
2019-03-19T13:51:39.447Z,101595.45
2019-03-19T13:54:10.711Z,101590.48
2019-03-19T13:56:41.730Z,101596.86
2019-03-19T13:59:12.757Z,101594.63
2019-03-19T14:01:43.804Z,101598.02
2019-03-19T14:04:15.065Z,101598.53
2019-03-19T14:06:45.925Z,101598.59
2019-03-19T14:09:16.926Z,101594.22
2019-03-19T14:11:49.104Z,101595.79
2019-03-19T14:14:20.191Z,101591.84
2019-03-19T14:16:51.163Z,101596.59
2019-03-19T14:19:22.282Z,101598.52
2019-03-19T14:21:53.371Z,101601.08
2019-03-19T14:24:24.470Z,101603.23
2019-03-19T14:26:55.547Z,101603.25
2019-03-19T14:29:26.646Z,101605.99
2019-03-19T14:31:57.818Z,101600.53
2019-03-19T14:34:28.920Z,101600.09
2019-03-19T14:36:59.866Z,101603.23
2019-03-19T14:39:31.086Z,101610.17
2019-03-19T14:42:02.130Z,101612.17
2019-03-19T14:44:33.203Z,101608.81
2019-03-19T14:47:04.310Z,101607.58
2019-03-19T14:49:46.077Z,101614.32
2019-03-19T14:52:08.509Z,101608.88
2019-03-19T14:54:40.323Z,101615.62
2019-03-19T14:57:11.361Z,101613.32
2019-03-19T14:59:42.767Z,101612.75
2019-03-19T15:02:15.192Z,101615.47
2019-03-19T15:04:46.313Z,101611.88
2019-03-19T15:07:17.979Z,101613.66
2019-03-19T15:09:49.010Z,101616.37
2019-03-19T15:12:20.142Z,101616.59
2019-03-19T15:14:52.216Z,101622.35
2019-03-19T15:17:23.320Z,101624.50
2019-03-19T15:19:54.463Z,101623.66
2019-03-19T15:22:32.447Z,101625.19
2019-03-19T15:24:58.558Z,101630.35
2019-03-19T15:27:30.726Z,101629.29
2019-03-19T15:30:03.042Z,101634.25
2019-03-19T15:32:34.830Z,101634.30
2019-03-19T15:35:08.988Z,101632.61
2019-03-19T15:37:41.015Z,101638.08
2019-03-19T15:40:16.411Z,101642.11
2019-03-19T15:42:47.506Z,101645.33
2019-03-19T15:45:26.552Z,101642.81
2019-03-19T15:47:57.563Z,101645.70
2019-03-19T15:50:28.696Z,101648.76
2019-03-19T15:52:59.749Z,101650.09
2019-03-19T15:55:30.938Z,101649.69
2019-03-19T15:58:01.928Z,101649.46
2019-03-19T16:00:33.418Z,101650.91
2019-03-19T16:03:04.447Z,101651.59
2019-03-19T16:05:35.681Z,101653.73
2019-03-19T16:08:06.830Z,101652.30
2019-03-19T16:10:38.928Z,101659.94
2019-03-19T16:13:10.045Z,101655.89
2019-03-19T16:15:41.183Z,101655.77
2019-03-19T16:18:12.246Z,101664.09
2019-03-19T16:20:43.417Z,101656.77
2019-03-19T16:23:14.496Z,101669.10
2019-03-19T16:25:45.553Z,101667.45
2019-03-19T16:28:16.776Z,101668.94
2019-03-19T16:30:47.746Z,101668.86
2019-03-19T16:33:19.556Z,101672.69
2019-03-19T16:35:50.760Z,101672.19
2019-03-19T16:38:21.784Z,101670.94
2019-03-19T16:40:52.927Z,101667.48
2019-03-19T16:43:24.009Z,101677.91
2019-03-19T16:45:55.112Z,101675.06
2019-03-19T16:48:26.571Z,101676.95
2019-03-19T16:50:57.610Z,101675.31
2019-03-19T16:53:28.793Z,101681.50
2019-03-19T16:56:00.340Z,101675.82
2019-03-19T16:58:31.552Z,101673.77
2019-03-19T17:01:02.608Z,101686.78
2019-03-19T17:03:33.884Z,101681.58
2019-03-19T17:06:04.982Z,101679.98
2019-03-19T17:08:36.162Z,101686.29
2019-03-19T17:11:07.354Z,101680.98
2019-03-19T17:13:39.619Z,101678.03
2019-03-19T17:16:10.775Z,101681.37
2019-03-19T17:18:41.790Z,101680.98
2019-03-19T17:21:12.782Z,101679.88
2019-03-19T17:23:43.946Z,101685.56
2019-03-19T17:26:14.988Z,101685.80
2019-03-19T17:28:46.087Z,101685.68
2019-03-19T17:31:17.199Z,101683.84
2019-03-19T17:33:48.191Z,101694.56
2019-03-19T17:36:19.363Z,101699.14
2019-03-19T17:38:50.591Z,101697.28
2019-03-19T17:41:21.804Z,101701.95
2019-03-19T17:43:52.897Z,101698.53
2019-03-19T17:46:23.995Z,101702.47
2019-03-19T17:48:55.024Z,101708.50
2019-03-19T17:51:26.073Z,101706.66
2019-03-19T17:53:57.230Z,101704.55
2019-03-19T17:56:46.078Z,101705.41
2019-03-19T17:59:17.156Z,101708.02
2019-03-19T18:01:48.186Z,101705.02
2019-03-19T18:04:19.427Z,101711.16
2019-03-19T18:06:50.505Z,101712.02
2019-03-19T18:09:21.627Z,101713.62
2019-03-19T18:11:52.659Z,101716.31
2019-03-19T18:14:23.816Z,101707.96
2019-03-19T18:16:54.865Z,101714.14
2019-03-19T18:19:26.019Z,101706.52
2019-03-19T18:21:57.006Z,101715.39
2019-03-19T18:24:28.095Z,101705.01
2019-03-19T18:26:59.238Z,101710.34
2019-03-19T18:29:30.303Z,101712.53
2019-03-19T18:32:01.374Z,101711.73
2019-03-19T18:34:32.982Z,101710.34
2019-03-19T18:37:04.074Z,101709.23
2019-03-19T18:39:35.696Z,101715.03
2019-03-19T18:42:06.968Z,101721.13
2019-03-19T18:44:38.030Z,101718.67
2019-03-19T18:47:12.155Z,101713.68
2019-03-19T18:49:43.937Z,101712.41
2019-03-19T18:52:16.350Z,101713.03
2019-03-19T18:54:47.645Z,101717.47
2019-03-19T18:57:18.964Z,101721.47
2019-03-19T18:59:50.180Z,101721.19
2019-03-19T19:02:21.427Z,101716.00
2019-03-19T19:04:52.712Z,101718.45
2019-03-19T19:07:24.112Z,101724.94
2019-03-19T19:09:55.239Z,101727.01
2019-03-19T19:12:26.357Z,101723.48
2019-03-19T19:14:57.533Z,101726.81
2019-03-19T19:17:28.673Z,101721.08
2019-03-19T19:19:59.779Z,101728.22
2019-03-19T19:22:30.919Z,101727.67
2019-03-19T19:25:02.366Z,101725.34
2019-03-19T19:27:33.836Z,101727.09
2019-03-19T19:30:11.073Z,101722.98
2019-03-19T19:32:42.089Z,101722.19
2019-03-19T19:35:13.356Z,101723.66
2019-03-19T19:37:44.605Z,101726.23
2019-03-19T19:40:17.271Z,101732.15
2019-03-19T19:42:48.472Z,101732.02
2019-03-19T19:45:20.063Z,101730.72
2019-03-19T19:47:51.163Z,101733.63
2019-03-19T19:50:23.327Z,101733.34
2019-03-19T19:52:54.494Z,101736.84
2019-03-19T19:55:25.886Z,101736.33
2019-03-19T19:57:57.073Z,101738.31
2019-03-19T20:00:28.165Z,101732.81
2019-03-19T20:02:59.161Z,101733.69
2019-03-19T20:05:30.408Z,101732.49
2019-03-19T20:08:01.542Z,101735.75
2019-03-19T20:10:32.706Z,101735.04
2019-03-19T20:13:04.211Z,101735.80
2019-03-19T20:15:35.481Z,101736.13
2019-03-19T20:18:08.194Z,101730.55
2019-03-19T20:20:39.436Z,101737.61
2019-03-19T20:23:52.507Z,101735.13
2019-03-19T20:26:40.319Z,101739.88
2019-03-19T20:29:11.502Z,101734.29
2019-03-19T20:31:42.698Z,101734.29
2019-03-19T20:34:13.866Z,101740.51
2019-03-19T20:36:45.585Z,101738.84
2019-03-19T20:39:55.775Z,101749.77
2019-03-19T20:42:26.878Z,101748.16
2019-03-19T20:44:58.130Z,101755.98
2019-03-19T20:47:29.279Z,101738.89
2019-03-19T20:50:00.402Z,101749.25
2019-03-19T20:52:31.728Z,101747.13
2019-03-19T20:55:02.893Z,101748.72
2019-03-19T20:57:34.083Z,101762.80
2019-03-19T21:00:08.474Z,101746.38
2019-03-19T21:02:39.717Z,101754.70
2019-03-19T21:05:10.937Z,101759.05
2019-03-19T21:07:42.142Z,101755.48
2019-03-19T21:10:24.410Z,101755.48
2019-03-19T21:12:55.658Z,101755.86
2019-03-19T21:15:29.091Z,101754.63
2019-03-19T21:18:00.457Z,101758.90
2019-03-19T21:20:31.549Z,101749.69
2019-03-19T21:23:02.584Z,101760.17
2019-03-19T21:25:33.719Z,101756.05
2019-03-19T21:28:13.596Z,101761.41
2019-03-19T21:30:37.828Z,101761.41
2019-03-19T21:33:09.007Z,101754.97
2019-03-19T21:35:40.149Z,101763.57
2019-03-19T21:38:11.185Z,101754.89
2019-03-19T21:40:42.326Z,101755.59
2019-03-19T21:43:13.473Z,101758.17
2019-03-19T21:45:44.837Z,101762.52
2019-03-19T21:48:15.971Z,101764.22
2019-03-19T21:50:47.110Z,101765.95
2019-03-19T21:53:18.167Z,101756.09
2019-03-19T21:55:49.201Z,101769.66
2019-03-19T21:58:20.168Z,101769.31
2019-03-19T22:00:51.275Z,101768.73
2019-03-19T22:03:22.419Z,101768.73
2019-03-19T22:05:53.565Z,101766.92
2019-03-19T22:08:24.709Z,101766.92
2019-03-19T22:10:56.867Z,101763.34
2019-03-19T22:13:28.029Z,101766.12
2019-03-19T22:15:59.009Z,101768.93
2019-03-19T22:18:30.103Z,101771.24
2019-03-19T22:21:01.186Z,101768.47
2019-03-19T22:23:32.281Z,101774.63
2019-03-19T22:26:04.457Z,101770.78
2019-03-19T22:28:35.617Z,101767.84
2019-03-19T22:31:06.633Z,101767.84
2019-03-19T22:33:37.789Z,101766.91
2019-03-19T22:36:09.141Z,101783.17
2019-03-19T22:38:40.412Z,101789.25
2019-03-19T22:41:11.731Z,101778.48
2019-03-19T22:43:43.023Z,101786.00
2019-03-19T22:46:21.642Z,101786.67
2019-03-19T22:48:47.323Z,101786.67
2019-03-19T22:51:18.659Z,101789.55
2019-03-19T22:53:49.958Z,101784.34
2019-03-19T22:56:21.259Z,101784.34
2019-03-19T22:58:52.547Z,101782.12
2019-03-19T23:01:23.863Z,101778.73
2019-03-19T23:03:55.113Z,101789.61
2019-03-19T23:06:26.362Z,101789.63
2019-03-19T23:08:57.702Z,101789.63
2019-03-19T23:11:29.041Z,101790.05
2019-03-19T23:14:00.395Z,101790.05
2019-03-19T23:16:31.645Z,101783.22
2019-03-19T23:19:03.002Z,101785.80
2019-03-19T23:21:34.301Z,101774.74
2019-03-19T23:24:05.554Z,101782.44
2019-03-19T23:26:36.823Z,101783.69
2019-03-19T23:29:07.880Z,101783.69
2019-03-19T23:31:39.011Z,101786.27
2019-03-19T23:34:10.057Z,101784.94
2019-03-19T23:36:41.203Z,101781.75
2019-03-19T23:39:12.355Z,101780.70
2019-03-19T23:41:43.481Z,101777.62
2019-03-19T23:44:14.529Z,101777.52
2019-03-19T23:46:45.577Z,101767.99
2019-03-19T23:49:16.721Z,101770.59
2019-03-19T23:51:47.867Z,101779.83
2019-03-19T23:54:19.074Z,101779.83
2019-03-19T23:56:50.259Z,101776.07
2019-03-19T23:59:21.385Z,101776.07
